sensor_id;sensor_type;location;lat;lon;timestamp;pressure;altitude;pressure_sealevel;temperature;humidity
20624;BME280;10471;42.736;23.346;2023-05-16T00:01:09;95254.09;;;14.49;100.00
20624;BME280;10471;42.736;23.346;2023-05-16T00:03:37;95255.66;;;14.50;100.00
20624;BME280;10471;42.736;23.346;2023-05-16T00:06:03;95258.81;;;14.52;100.00
20624;BME280;10471;42.736;23.346;2023-05-16T00:08:29;95250.03;;;14.52;100.00
20624;BME280;10471;42.736;23.346;2023-05-16T00:10:55;95247.13;;;14.53;100.00
20624;BME280;10471;42.736;23.346;2023-05-16T00:13:20;95244.47;;;14.53;100.00
20624;BME280;10471;42.736;23.346;2023-05-16T00:15:52;95246.13;;;14.49;100.00
20624;BME280;10471;42.736;23.346;2023-05-16T00:18:21;95232.88;;;14.49;100.00
20624;BME280;10471;42.736;23.346;2023-05-16T00:20:49;95236.63;;;14.48;100.00
20624;BME280;10471;42.736;23.346;2023-05-16T00:23:16;95227.56;;;14.49;100.00
20624;BME280;10471;42.736;23.346;2023-05-16T00:25:42;95233.47;;;14.46;100.00
20624;BME280;10471;42.736;23.346;2023-05-16T00:28:07;95230.00;;;14.38;100.00
20624;BME280;10471;42.736;23.346;2023-05-16T00:30:33;95233.59;;;14.42;100.00
20624;BME280;10471;42.736;23.346;2023-05-16T00:32:58;95234.22;;;14.39;100.00
20624;BME280;10471;42.736;23.346;2023-05-16T00:35:24;95228.91;;;14.39;100.00
20624;BME280;10471;42.736;23.346;2023-05-16T00:37:49;95233.72;;;14.37;100.00
20624;BME280;10471;42.736;23.346;2023-05-16T00:40:15;95232.66;;;14.38;100.00
20624;BME280;10471;42.736;23.346;2023-05-16T00:42:41;95231.69;;;14.34;100.00
20624;BME280;10471;42.736;23.346;2023-05-16T00:45:07;95227.66;;;14.36;100.00
20624;BME280;10471;42.736;23.346;2023-05-16T00:47:33;95208.28;;;14.36;100.00
20624;BME280;10471;42.736;23.346;2023-05-16T00:50:00;95202.69;;;14.37;100.00
20624;BME280;10471;42.736;23.346;2023-05-16T00:52:26;95205.66;;;14.36;100.00
20624;BME280;10471;42.736;23.346;2023-05-16T00:54:51;95200.03;;;14.37;100.00
20624;BME280;10471;42.736;23.346;2023-05-16T00:57:17;95196.63;;;14.37;100.00
20624;BME280;10471;42.736;23.346;2023-05-16T00:59:45;95196.31;;;14.38;100.00
20624;BME280;10471;42.736;23.346;2023-05-16T01:02:12;95191.31;;;14.37;100.00
20624;BME280;10471;42.736;23.346;2023-05-16T01:04:38;95189.28;;;14.34;100.00
20624;BME280;10471;42.736;23.346;2023-05-16T01:07:03;95199.38;;;14.32;100.00
20624;BME280;10471;42.736;23.346;2023-05-16T01:09:29;95191.75;;;14.30;100.00
20624;BME280;10471;42.736;23.346;2023-05-16T01:17:49;95200.78;;;14.29;100.00
20624;BME280;10471;42.736;23.346;2023-05-16T01:20:29;95194.66;;;14.29;100.00
20624;BME280;10471;42.736;23.346;2023-05-16T01:28:19;95183.00;;;14.30;100.00
20624;BME280;10471;42.736;23.346;2023-05-16T01:30:45;95181.91;;;14.31;100.00
20624;BME280;10471;42.736;23.346;2023-05-16T01:33:10;95172.88;;;14.32;100.00
20624;BME280;10471;42.736;23.346;2023-05-16T01:35:42;95169.16;;;14.33;100.00
20624;BME280;10471;42.736;23.346;2023-05-16T01:38:24;95169.91;;;14.33;100.00
20624;BME280;10471;42.736;23.346;2023-05-16T01:41:01;95162.28;;;14.32;100.00
20624;BME280;10471;42.736;23.346;2023-05-16T01:43:42;95161.78;;;14.30;100.00
20624;BME280;10471;42.736;23.346;2023-05-16T01:46:13;95152.38;;;14.24;100.00
20624;BME280;10471;42.736;23.346;2023-05-16T01:48:52;95140.38;;;14.18;100.00
20624;BME280;10471;42.736;23.346;2023-05-16T01:51:23;95144.09;;;14.17;100.00
20624;BME280;10471;42.736;23.346;2023-05-16T01:53:56;95152.97;;;13.99;100.00
20624;BME280;10471;42.736;23.346;2023-05-16T01:56:24;95148.94;;;14.01;100.00
20624;BME280;10471;42.736;23.346;2023-05-16T01:58:52;95144.44;;;14.02;100.00
20624;BME280;10471;42.736;23.346;2023-05-16T02:01:17;95136.94;;;14.04;100.00
20624;BME280;10471;42.736;23.346;2023-05-16T02:03:43;95141.28;;;14.00;100.00
20624;BME280;10471;42.736;23.346;2023-05-16T02:06:08;95152.19;;;13.98;100.00
20624;BME280;10471;42.736;23.346;2023-05-16T02:08:34;95136.72;;;13.92;100.00
20624;BME280;10471;42.736;23.346;2023-05-16T02:10:59;95149.28;;;13.86;100.00
20624;BME280;10471;42.736;23.346;2023-05-16T02:13:24;95148.53;;;13.86;100.00
20624;BME280;10471;42.736;23.346;2023-05-16T02:15:50;95136.72;;;13.92;100.00
20624;BME280;10471;42.736;23.346;2023-05-16T02:18:15;95135.16;;;13.91;100.00
20624;BME280;10471;42.736;23.346;2023-05-16T02:20:41;95133.78;;;13.93;100.00
20624;BME280;10471;42.736;23.346;2023-05-16T02:23:06;95127.66;;;13.93;100.00
20624;BME280;10471;42.736;23.346;2023-05-16T02:25:32;95133.97;;;13.97;100.00
20624;BME280;10471;42.736;23.346;2023-05-16T02:27:57;95133.59;;;13.90;100.00
20624;BME280;10471;42.736;23.346;2023-05-16T02:30:22;95134.06;;;13.92;100.00
20624;BME280;10471;42.736;23.346;2023-05-16T02:32:48;95126.13;;;13.92;100.00
20624;BME280;10471;42.736;23.346;2023-05-16T02:35:14;95132.81;;;13.89;100.00
20624;BME280;10471;42.736;23.346;2023-05-16T02:37:40;95130.44;;;13.88;100.00
20624;BME280;10471;42.736;23.346;2023-05-16T02:40:06;95134.25;;;13.74;100.00
20624;BME280;10471;42.736;23.346;2023-05-16T02:42:32;95146.03;;;13.68;100.00
20624;BME280;10471;42.736;23.346;2023-05-16T02:44:58;95153.66;;;13.69;100.00
20624;BME280;10471;42.736;23.346;2023-05-16T02:47:23;95155.25;;;13.70;100.00
20624;BME280;10471;42.736;23.346;2023-05-16T02:49:49;95144.66;;;13.70;100.00
20624;BME280;10471;42.736;23.346;2023-05-16T02:52:17;95145.22;;;13.67;100.00
20624;BME280;10471;42.736;23.346;2023-05-16T02:54:42;95141.50;;;13.68;100.00
20624;BME280;10471;42.736;23.346;2023-05-16T02:57:08;95132.38;;;13.74;100.00
20624;BME280;10471;42.736;23.346;2023-05-16T02:59:33;95133.22;;;13.83;100.00
20624;BME280;10471;42.736;23.346;2023-05-16T03:01:58;95122.63;;;13.83;100.00
20624;BME280;10471;42.736;23.346;2023-05-16T03:04:24;95126.53;;;13.85;100.00
20624;BME280;10471;42.736;23.346;2023-05-16T03:06:49;95121.41;;;13.89;100.00
20624;BME280;10471;42.736;23.346;2023-05-16T03:09:15;95126.91;;;13.92;100.00
20624;BME280;10471;42.736;23.346;2023-05-16T03:11:41;95131.31;;;13.97;100.00
20624;BME280;10471;42.736;23.346;2023-05-16T03:14:06;95136.88;;;13.95;100.00
20624;BME280;10471;42.736;23.346;2023-05-16T03:16:32;95137.56;;;14.01;100.00
20624;BME280;10471;42.736;23.346;2023-05-16T03:18:58;95128.03;;;14.00;100.00
20624;BME280;10471;42.736;23.346;2023-05-16T03:21:23;95130.56;;;14.05;100.00
20624;BME280;10471;42.736;23.346;2023-05-16T03:23:48;95131.56;;;14.09;100.00
20624;BME280;10471;42.736;23.346;2023-05-16T03:26:14;95130.25;;;14.06;100.00
20624;BME280;10471;42.736;23.346;2023-05-16T03:28:39;95132.91;;;14.06;100.00
20624;BME280;10471;42.736;23.346;2023-05-16T03:31:05;95131.56;;;14.09;100.00
20624;BME280;10471;42.736;23.346;2023-05-16T03:33:30;95122.00;;;14.08;100.00
20624;BME280;10471;42.736;23.346;2023-05-16T03:35:55;95132.34;;;14.09;100.00
20624;BME280;10471;42.736;23.346;2023-05-16T03:38:21;95124.88;;;14.11;100.00
20624;BME280;10471;42.736;23.346;2023-05-16T03:40:46;95123.78;;;14.12;100.00
20624;BME280;10471;42.736;23.346;2023-05-16T03:43:11;95120.56;;;14.15;100.00
20624;BME280;10471;42.736;23.346;2023-05-16T03:45:37;95125.72;;;14.20;100.00
20624;BME280;10471;42.736;23.346;2023-05-16T03:48:02;95119.16;;;14.18;100.00
20624;BME280;10471;42.736;23.346;2023-05-16T03:50:28;95126.31;;;14.17;100.00
20624;BME280;10471;42.736;23.346;2023-05-16T03:52:53;95128.38;;;14.20;100.00
20624;BME280;10471;42.736;23.346;2023-05-16T03:55:19;95138.34;;;14.23;100.00
20624;BME280;10471;42.736;23.346;2023-05-16T03:57:45;95124.78;;;14.25;100.00
20624;BME280;10471;42.736;23.346;2023-05-16T04:00:12;95125.47;;;14.30;100.00
20624;BME280;10471;42.736;23.346;2023-05-16T04:02:39;95127.31;;;14.30;100.00
20624;BME280;10471;42.736;23.346;2023-05-16T04:05:06;95123.72;;;14.26;100.00
20624;BME280;10471;42.736;23.346;2023-05-16T04:07:32;95118.09;;;14.27;100.00
20624;BME280;10471;42.736;23.346;2023-05-16T04:09:57;95123.34;;;14.19;100.00
20624;BME280;10471;42.736;23.346;2023-05-16T04:12:23;95124.22;;;14.28;100.00
20624;BME280;10471;42.736;23.346;2023-05-16T04:14:48;95124.06;;;14.33;100.00
20624;BME280;10471;42.736;23.346;2023-05-16T04:17:13;95129.25;;;14.38;100.00
20624;BME280;10471;42.736;23.346;2023-05-16T04:19:39;95129.44;;;14.41;100.00
20624;BME280;10471;42.736;23.346;2023-05-16T04:22:05;95143.31;;;14.46;100.00
20624;BME280;10471;42.736;23.346;2023-05-16T04:24:32;95137.41;;;14.49;100.00
20624;BME280;10471;42.736;23.346;2023-05-16T04:26:57;95132.28;;;14.53;100.00
20624;BME280;10471;42.736;23.346;2023-05-16T04:29:23;95133.25;;;14.57;100.00
20624;BME280;10471;42.736;23.346;2023-05-16T04:31:48;95134.16;;;14.52;100.00
20624;BME280;10471;42.736;23.346;2023-05-16T04:34:13;95136.19;;;14.55;100.00
20624;BME280;10471;42.736;23.346;2023-05-16T04:36:40;95126.19;;;14.52;100.00
20624;BME280;10471;42.736;23.346;2023-05-16T04:39:06;95127.28;;;14.51;100.00
20624;BME280;10471;42.736;23.346;2023-05-16T04:41:31;95126.66;;;14.54;100.00
20624;BME280;10471;42.736;23.346;2023-05-16T04:43:59;95127.34;;;14.60;100.00
20624;BME280;10471;42.736;23.346;2023-05-16T04:46:25;95127.34;;;14.60;100.00
20624;BME280;10471;42.736;23.346;2023-05-16T04:48:50;95125.44;;;14.60;100.00
20624;BME280;10471;42.736;23.346;2023-05-16T04:51:16;95122.78;;;14.60;100.00
20624;BME280;10471;42.736;23.346;2023-05-16T04:53:41;95134.38;;;14.64;100.00
20624;BME280;10471;42.736;23.346;2023-05-16T04:56:07;95130.78;;;14.69;100.00
20624;BME280;10471;42.736;23.346;2023-05-16T04:58:32;95134.69;;;14.71;100.00
20624;BME280;10471;42.736;23.346;2023-05-16T05:00:58;95121.94;;;14.73;100.00
20624;BME280;10471;42.736;23.346;2023-05-16T05:03:23;95116.97;;;14.80;100.00
20624;BME280;10471;42.736;23.346;2023-05-16T05:05:49;95119.47;;;14.85;100.00
20624;BME280;10471;42.736;23.346;2023-05-16T05:08:14;95121.19;;;14.90;100.00
20624;BME280;10471;42.736;23.346;2023-05-16T05:10:40;95116.06;;;14.93;100.00
20624;BME280;10471;42.736;23.346;2023-05-16T05:13:06;95125.28;;;14.96;100.00
20624;BME280;10471;42.736;23.346;2023-05-16T05:15:31;95126.84;;;14.97;100.00
20624;BME280;10471;42.736;23.346;2023-05-16T05:17:57;95131.63;;;14.86;100.00
20624;BME280;10471;42.736;23.346;2023-05-16T05:20:22;95144.75;;;14.91;100.00
20624;BME280;10471;42.736;23.346;2023-05-16T05:22:48;95136.97;;;14.95;100.00
20624;BME280;10471;42.736;23.346;2023-05-16T05:25:13;95133.25;;;14.96;100.00
20624;BME280;10471;42.736;23.346;2023-05-16T05:27:39;95133.88;;;15.01;100.00
20624;BME280;10471;42.736;23.346;2023-05-16T05:30:05;95135.16;;;15.04;100.00
20624;BME280;10471;42.736;23.346;2023-05-16T05:32:31;95132.00;;;15.02;100.00
20624;BME280;10471;42.736;23.346;2023-05-16T05:34:56;95135.44;;;15.02;100.00
20624;BME280;10471;42.736;23.346;2023-05-16T05:37:21;95122.94;;;14.94;100.00
20624;BME280;10471;42.736;23.346;2023-05-16T05:39:47;95107.78;;;14.95;100.00
20624;BME280;10471;42.736;23.346;2023-05-16T05:42:12;95098.91;;;14.99;100.00
20624;BME280;10471;42.736;23.346;2023-05-16T05:44:38;95105.66;;;15.05;100.00
20624;BME280;10471;42.736;23.346;2023-05-16T05:47:05;95098.44;;;15.06;100.00
20624;BME280;10471;42.736;23.346;2023-05-16T05:49:31;95108.28;;;15.05;100.00
20624;BME280;10471;42.736;23.346;2023-05-16T05:51:57;95102.84;;;15.10;100.00
20624;BME280;10471;42.736;23.346;2023-05-16T05:54:22;95098.47;;;15.14;100.00
20624;BME280;10471;42.736;23.346;2023-05-16T05:56:48;95092.84;;;15.15;100.00
20624;BME280;10471;42.736;23.346;2023-05-16T05:59:14;95099.28;;;15.23;100.00
20624;BME280;10471;42.736;23.346;2023-05-16T06:01:40;95095.56;;;15.24;100.00
20624;BME280;10471;42.736;23.346;2023-05-16T06:04:05;95092.41;;;15.22;100.00
20624;BME280;10471;42.736;23.346;2023-05-16T06:06:30;95095.88;;;15.31;100.00
20624;BME280;10471;42.736;23.346;2023-05-16T06:08:57;95090.44;;;15.36;100.00
20624;BME280;10471;42.736;23.346;2023-05-16T06:11:23;95087.75;;;15.36;100.00
20624;BME280;10471;42.736;23.346;2023-05-16T06:13:49;95088.53;;;15.36;100.00
20624;BME280;10471;42.736;23.346;2023-05-16T06:16:15;95099.31;;;15.40;100.00
20624;BME280;10471;42.736;23.346;2023-05-16T06:18:40;95083.22;;;15.45;100.00
20624;BME280;10471;42.736;23.346;2023-05-16T06:21:06;95087.63;;;15.41;100.00
20624;BME280;10471;42.736;23.346;2023-05-16T06:23:32;95083.22;;;15.45;100.00
20624;BME280;10471;42.736;23.346;2023-05-16T06:25:57;95087.63;;;15.49;100.00
20624;BME280;10471;42.736;23.346;2023-05-16T06:28:23;95095.44;;;15.54;100.00
20624;BME280;10471;42.736;23.346;2023-05-16T06:30:49;95105.59;;;15.61;100.00
20624;BME280;10471;42.736;23.346;2023-05-16T06:33:19;95109.16;;;15.56;100.00
20624;BME280;10471;42.736;23.346;2023-05-16T06:35:45;95115.56;;;15.64;100.00
20624;BME280;10471;42.736;23.346;2023-05-16T06:38:12;95102.63;;;15.62;100.00
20624;BME280;10471;42.736;23.346;2023-05-16T06:40:37;95091.50;;;15.69;100.00
20624;BME280;10471;42.736;23.346;2023-05-16T06:43:02;95087.47;;;15.63;100.00
20624;BME280;10471;42.736;23.346;2023-05-16T06:45:28;95082.44;;;15.70;100.00
20624;BME280;10471;42.736;23.346;2023-05-16T06:47:54;95082.59;;;15.73;100.00
20624;BME280;10471;42.736;23.346;2023-05-16T06:50:20;95091.22;;;15.78;100.00
20624;BME280;10471;42.736;23.346;2023-05-16T06:52:45;95094.31;;;15.89;100.00
20624;BME280;10471;42.736;23.346;2023-05-16T06:55:10;95081.66;;;15.94;100.00
20624;BME280;10471;42.736;23.346;2023-05-16T06:57:36;95081.19;;;15.92;100.00
20624;BME280;10471;42.736;23.346;2023-05-16T07:00:02;95078.69;;;15.87;100.00
20624;BME280;10471;42.736;23.346;2023-05-16T07:02:27;95059.63;;;15.85;100.00
20624;BME280;10471;42.736;23.346;2023-05-16T07:04:53;95067.41;;;15.90;100.00
20624;BME280;10471;42.736;23.346;2023-05-16T07:07:19;95075.88;;;15.92;100.00
20624;BME280;10471;42.736;23.346;2023-05-16T07:09:44;95068.06;;;15.87;100.00
20624;BME280;10471;42.736;23.346;2023-05-16T07:12:10;95075.56;;;15.94;100.00
20624;BME280;10471;42.736;23.346;2023-05-16T07:14:35;95075.56;;;15.94;100.00
20624;BME280;10471;42.736;23.346;2023-05-16T07:17:01;95064.44;;;16.00;100.00
20624;BME280;10471;42.736;23.346;2023-05-16T07:19:26;95061.44;;;16.10;100.00
20624;BME280;10471;42.736;23.346;2023-05-16T07:21:51;95056.13;;;16.10;100.00
20624;BME280;10471;42.736;23.346;2023-05-16T07:24:17;95057.38;;;16.13;100.00
20624;BME280;10471;42.736;23.346;2023-05-16T07:26:43;95040.63;;;16.21;100.00
20624;BME280;10471;42.736;23.346;2023-05-16T07:29:08;95035.47;;;16.24;100.00
20624;BME280;10471;42.736;23.346;2023-05-16T07:31:34;95025.25;;;16.26;100.00
20624;BME280;10471;42.736;23.346;2023-05-16T07:33:59;95029.81;;;16.34;100.00
20624;BME280;10471;42.736;23.346;2023-05-16T07:36:25;95030.72;;;16.38;100.00
20624;BME280;10471;42.736;23.346;2023-05-16T07:38:50;95039.19;;;16.40;100.00
20624;BME280;10471;42.736;23.346;2023-05-16T07:41:15;95037.91;;;16.46;100.00
20624;BME280;10471;42.736;23.346;2023-05-16T07:43:41;95044.78;;;16.47;100.00
20624;BME280;10471;42.736;23.346;2023-05-16T07:46:06;95040.22;;;16.56;100.00
20624;BME280;10471;42.736;23.346;2023-05-16T07:48:32;95044.88;;;16.59;100.00
20624;BME280;10471;42.736;23.346;2023-05-16T07:50:57;95052.47;;;16.77;100.00
20624;BME280;10471;42.736;23.346;2023-05-16T07:53:22;95059.94;;;16.84;100.00
20624;BME280;10471;42.736;23.346;2023-05-16T07:55:48;95061.16;;;16.95;100.00
20624;BME280;10471;42.736;23.346;2023-05-16T07:58:14;95041.22;;;17.01;100.00
20624;BME280;10471;42.736;23.346;2023-05-16T08:00:39;95035.31;;;17.15;100.00
20624;BME280;10471;42.736;23.346;2023-05-16T08:03:05;95043.13;;;17.20;100.00
20624;BME280;10471;42.736;23.346;2023-05-16T08:05:31;95054.09;;;17.27;100.00
20624;BME280;10471;42.736;23.346;2023-05-16T08:07:56;95058.63;;;17.27;100.00
20624;BME280;10471;42.736;23.346;2023-05-16T08:10:22;95045.00;;;17.28;100.00
20624;BME280;10471;42.736;23.346;2023-05-16T08:12:48;95038.72;;;17.24;100.00
20624;BME280;10471;42.736;23.346;2023-05-16T08:15:14;95027.06;;;17.37;100.00
20624;BME280;10471;42.736;23.346;2023-05-16T08:17:39;95034.09;;;17.42;100.00
20624;BME280;10471;42.736;23.346;2023-05-16T08:20:05;95023.53;;;17.45;100.00
20624;BME280;10471;42.736;23.346;2023-05-16T08:22:31;95021.66;;;17.46;100.00
20624;BME280;10471;42.736;23.346;2023-05-16T08:24:57;95023.03;;;17.52;100.00
20624;BME280;10471;42.736;23.346;2023-05-16T08:27:25;95026.00;;;17.71;100.00
20624;BME280;10471;42.736;23.346;2023-05-16T08:29:50;95025.59;;;17.80;100.00
20624;BME280;10471;42.736;23.346;2023-05-16T08:32:16;95016.41;;;17.90;100.00
20624;BME280;10471;42.736;23.346;2023-05-16T08:34:41;95023.97;;;18.00;100.00
20624;BME280;10471;42.736;23.346;2023-05-16T08:37:06;95021.78;;;18.02;100.00
20624;BME280;10471;42.736;23.346;2023-05-16T08:39:32;95019.34;;;18.09;100.00
20624;BME280;10471;42.736;23.346;2023-05-16T08:41:58;95019.78;;;18.11;100.00
20624;BME280;10471;42.736;23.346;2023-05-16T08:44:24;95017.34;;;18.06;100.00
20624;BME280;10471;42.736;23.346;2023-05-16T08:46:51;95018.03;;;18.15;100.00
20624;BME280;10471;42.736;23.346;2023-05-16T08:49:17;95024.25;;;18.07;100.00
20624;BME280;10471;42.736;23.346;2023-05-16T08:51:45;95026.72;;;18.24;100.00
20624;BME280;10471;42.736;23.346;2023-05-16T08:54:13;95021.66;;;18.42;100.00
20624;BME280;10471;42.736;23.346;2023-05-16T08:56:40;95010.44;;;18.49;100.00
20624;BME280;10471;42.736;23.346;2023-05-16T08:59:06;95012.22;;;18.45;100.00
20624;BME280;10471;42.736;23.346;2023-05-16T09:01:31;95023.66;;;18.69;100.00
20624;BME280;10471;42.736;23.346;2023-05-16T09:03:57;95032.03;;;18.80;100.00
20624;BME280;10471;42.736;23.346;2023-05-16T09:06:23;95017.09;;;19.03;100.00
20624;BME280;10471;42.736;23.346;2023-05-16T09:08:49;95025.78;;;19.23;100.00
20624;BME280;10471;42.736;23.346;2023-05-16T09:11:14;95011.63;;;19.35;100.00
20624;BME280;10471;42.736;23.346;2023-05-16T09:13:40;95027.47;;;19.55;100.00
20624;BME280;10471;42.736;23.346;2023-05-16T09:16:10;95020.44;;;19.63;100.00
20624;BME280;10471;42.736;23.346;2023-05-16T09:18:36;95032.84;;;19.82;100.00
20624;BME280;10471;42.736;23.346;2023-05-16T09:21:04;95031.69;;;19.95;100.00
20624;BME280;10471;42.736;23.346;2023-05-16T09:23:30;95028.34;;;19.98;100.00
20624;BME280;10471;42.736;23.346;2023-05-16T09:25:57;95032.88;;;20.10;100.00
20624;BME280;10471;42.736;23.346;2023-05-16T09:28:22;95036.66;;;20.09;100.00
20624;BME280;10471;42.736;23.346;2023-05-16T09:30:51;95029.31;;;20.06;100.00
20624;BME280;10471;42.736;23.346;2023-05-16T09:33:17;95028.47;;;20.17;100.00
20624;BME280;10471;42.736;23.346;2023-05-16T09:35:42;95028.69;;;19.97;100.00
20624;BME280;10471;42.736;23.346;2023-05-16T09:38:15;95024.59;;;19.87;100.00
20624;BME280;10471;42.736;23.346;2023-05-16T09:40:41;95012.88;;;19.53;100.00
20624;BME280;10471;42.736;23.346;2023-05-16T09:43:07;95005.59;;;19.38;100.00
20624;BME280;10471;42.736;23.346;2023-05-16T09:45:34;95007.16;;;19.27;100.00
20624;BME280;10471;42.736;23.346;2023-05-16T09:48:07;95004.31;;;19.20;100.00
20624;BME280;10471;42.736;23.346;2023-05-16T09:50:35;95002.28;;;19.17;100.00
20624;BME280;10471;42.736;23.346;2023-05-16T09:53:01;95013.44;;;19.19;100.00
20624;BME280;10471;42.736;23.346;2023-05-16T09:55:27;95004.50;;;19.27;100.00
20624;BME280;10471;42.736;23.346;2023-05-16T09:57:52;94996.94;;;19.29;100.00
20624;BME280;10471;42.736;23.346;2023-05-16T10:00:18;95007.16;;;19.39;100.00
20624;BME280;10471;42.736;23.346;2023-05-16T10:02:44;95000.06;;;19.58;100.00
20624;BME280;10471;42.736;23.346;2023-05-16T10:05:10;94993.16;;;19.84;100.00
20624;BME280;10471;42.736;23.346;2023-05-16T10:07:36;94990.41;;;20.08;100.00
20624;BME280;10471;42.736;23.346;2023-05-16T10:10:05;94990.75;;;20.22;100.00
20624;BME280;10471;42.736;23.346;2023-05-16T10:12:31;94990.06;;;20.41;100.00
20624;BME280;10471;42.736;23.346;2023-05-16T10:15:00;94992.91;;;20.63;100.00
20624;BME280;10471;42.736;23.346;2023-05-16T10:17:26;94989.06;;;20.76;100.00
20624;BME280;10471;42.736;23.346;2023-05-16T10:19:52;94997.31;;;20.86;100.00
20624;BME280;10471;42.736;23.346;2023-05-16T10:22:18;94992.06;;;20.90;100.00
20624;BME280;10471;42.736;23.346;2023-05-16T10:27:23;95004.06;;;20.80;100.00
20624;BME280;10471;42.736;23.346;2023-05-16T10:29:50;95011.63;;;20.75;100.00
20624;BME280;10471;42.736;23.346;2023-05-16T10:32:17;95007.00;;;20.91;100.00
20624;BME280;10471;42.736;23.346;2023-05-16T10:34:43;94993.44;;;20.84;100.00
20624;BME280;10471;42.736;23.346;2023-05-16T10:37:10;94984.69;;;21.02;100.00
20624;BME280;10471;42.736;23.346;2023-05-16T10:39:37;94992.25;;;21.15;100.00
20624;BME280;10471;42.736;23.346;2023-05-16T10:42:04;94989.56;;;21.15;100.00
20624;BME280;10471;42.736;23.346;2023-05-16T10:44:31;94977.38;;;21.18;100.00
20624;BME280;10471;42.736;23.346;2023-05-16T10:46:59;94968.84;;;21.12;100.00
20624;BME280;10471;42.736;23.346;2023-05-16T10:49:26;94949.25;;;21.27;100.00
20624;BME280;10471;42.736;23.346;2023-05-16T10:54:33;94943.00;;;21.23;100.00
20624;BME280;10471;42.736;23.346;2023-05-16T10:57:04;94949.38;;;21.34;100.00
20624;BME280;10471;42.736;23.346;2023-05-16T10:59:39;94943.28;;;21.18;100.00
20624;BME280;10471;42.736;23.346;2023-05-16T11:02:21;94962.00;;;21.15;100.00
20624;BME280;10471;42.736;23.346;2023-05-16T11:04:48;94947.69;;;21.08;100.00
20624;BME280;10471;42.736;23.346;2023-05-16T11:07:17;94960.59;;;20.87;100.00
20624;BME280;10471;42.736;23.346;2023-05-16T11:09:43;94956.09;;;20.91;100.00
20624;BME280;10471;42.736;23.346;2023-05-16T11:12:09;94962.31;;;20.95;100.00
20624;BME280;10471;42.736;23.346;2023-05-16T11:14:39;94964.69;;;20.81;100.00
20624;BME280;10471;42.736;23.346;2023-05-16T11:25:04;94977.78;;;20.09;100.00
20624;BME280;10471;42.736;23.346;2023-05-16T11:27:32;94983.88;;;19.94;100.00
20624;BME280;10471;42.736;23.346;2023-05-16T11:30:14;94982.28;;;20.05;100.00
20624;BME280;10471;42.736;23.346;2023-05-16T11:32:41;94998.19;;;20.13;100.00
20624;BME280;10471;42.736;23.346;2023-05-16T11:35:10;95000.66;;;20.06;100.00
20624;BME280;10471;42.736;23.346;2023-05-16T11:37:36;94986.88;;;20.20;100.00
20624;BME280;10471;42.736;23.346;2023-05-16T11:40:02;94984.53;;;20.34;100.00
20624;BME280;10471;42.736;23.346;2023-05-16T11:42:34;94977.38;;;20.53;100.00
20624;BME280;10471;42.736;23.346;2023-05-16T11:47:31;94964.81;;;20.88;100.00
20624;BME280;10471;42.736;23.346;2023-05-16T11:49:57;94954.97;;;20.92;100.00
20624;BME280;10471;42.736;23.346;2023-05-16T11:52:22;94953.56;;;20.98;100.00
20624;BME280;10471;42.736;23.346;2023-05-16T11:54:48;94962.13;;;20.88;100.00
20624;BME280;10471;42.736;23.346;2023-05-16T11:57:14;94948.53;;;20.77;100.00
20624;BME280;10471;42.736;23.346;2023-05-16T11:59:41;94963.38;;;20.75;100.00
20624;BME280;10471;42.736;23.346;2023-05-16T12:02:07;94962.13;;;20.88;100.00
20624;BME280;10471;42.736;23.346;2023-05-16T12:04:34;94959.53;;;20.91;100.00
20624;BME280;10471;42.736;23.346;2023-05-16T12:07:00;94943.72;;;21.02;100.00
20624;BME280;10471;42.736;23.346;2023-05-16T12:09:26;94943.56;;;21.13;100.00
20624;BME280;10471;42.736;23.346;2023-05-16T12:11:52;94935.88;;;21.12;100.00
20624;BME280;10471;42.736;23.346;2023-05-16T12:14:17;94931.03;;;21.36;100.00
20624;BME280;10471;42.736;23.346;2023-05-16T12:16:44;94914.38;;;21.46;100.00
20624;BME280;10471;42.736;23.346;2023-05-16T12:19:11;94929.47;;;21.35;100.00
20624;BME280;10471;42.736;23.346;2023-05-16T12:21:37;94946.34;;;21.74;100.00
20624;BME280;10471;42.736;23.346;2023-05-16T12:24:03;94943.88;;;21.65;100.00
20624;BME280;10471;42.736;23.346;2023-05-16T12:26:30;94935.94;;;21.91;98.89
20624;BME280;10471;42.736;23.346;2023-05-16T12:28:58;94941.06;;;22.18;97.49
20624;BME280;10471;42.736;23.346;2023-05-16T12:31:25;94946.03;;;22.39;96.75
20624;BME280;10471;42.736;23.346;2023-05-16T12:33:54;94940.66;;;22.39;89.99
20624;BME280;10471;42.736;23.346;2023-05-16T12:36:20;94933.09;;;22.44;88.31
20624;BME280;10471;42.736;23.346;2023-05-16T12:38:46;94930.66;;;22.36;89.63
20624;BME280;10471;42.736;23.346;2023-05-16T12:41:21;94939.56;;;22.21;89.31
20624;BME280;10471;42.736;23.346;2023-05-16T12:43:48;94927.44;;;22.08;92.08
20624;BME280;10471;42.736;23.346;2023-05-16T12:46:14;94923.53;;;21.83;94.21
20624;BME280;10471;42.736;23.346;2023-05-16T12:48:40;94932.22;;;21.54;97.75
20624;BME280;10471;42.736;23.346;2023-05-16T12:51:12;94931.69;;;21.30;97.33
20624;BME280;10471;42.736;23.346;2023-05-16T12:53:46;94926.53;;;21.21;99.19
20624;BME280;10471;42.736;23.346;2023-05-16T12:56:13;94928.19;;;20.92;100.00
20624;BME280;10471;42.736;23.346;2023-05-16T12:58:42;94931.28;;;20.94;100.00
20624;BME280;10471;42.736;23.346;2023-05-16T13:01:07;94935.44;;;20.91;100.00
20624;BME280;10471;42.736;23.346;2023-05-16T13:03:33;94938.91;;;20.76;100.00